Time;durP1;ratioP1;P1;durP2;ratioP2;P2;SDS_P1;SDS_P2;PMS_P1;PMS_P2;Temp;Humidity;BMP_temperature;BMP_pressure;BME280_temperature;BME280_humidity;BME280_pressure;Samples;Min_cycle;Max_cycle;Signal;HPM_P1;HPM_P2
2024/02/09 00:01:37;;;;;;;5.23;2.90;;;17.00;1.00;;;;;;2612773;54;20459;-66
2024/02/09 00:04:06;;;;;;;2.33;2.00;;;17.00;1.00;;;;;;2612354;54;20192;-66
2024/02/09 00:06:32;;;;;;;2.40;2.20;;;17.00;1.00;;;;;;2612843;51;20419;-66
2024/02/09 00:08:58;;;;;;;4.67;3.10;;;17.00;1.00;;;;;;2613630;39;20807;-66
2024/02/09 00:11:24;;;;;;;2.70;2.50;;;17.00;1.00;;;;;;2613240;47;20233;-65
2024/02/09 00:13:49;;;;;;;2.13;1.97;;;17.00;1.00;;;;;;2613277;54;20155;-59
2024/02/09 00:16:15;;;;;;;3.20;2.40;;;16.90;1.00;;;;;;2613306;54;21297;-59
2024/02/09 00:18:40;;;;;;;2.10;1.80;;;17.00;1.00;;;;;;2611901;54;20175;-60
2024/02/09 00:21:06;;;;;;;2.00;1.90;;;17.00;1.00;;;;;;2612921;46;20679;-60
2024/02/09 00:23:32;;;;;;;2.67;2.43;;;17.00;1.00;;;;;;2613431;39;20575;-60
2024/02/09 00:26:01;;;;;;;2.67;2.47;;;17.00;1.00;;;;;;2613272;54;20408;-61
2024/02/09 00:28:27;;;;;;;2.60;2.33;;;17.00;1.00;;;;;;2612263;54;20163;-59
2024/02/09 00:30:54;;;;;;;2.50;2.30;;;17.00;1.00;;;;;;2613073;54;20451;-60
2024/02/09 00:33:20;;;;;;;4.47;2.73;;;17.00;1.00;;;;;;2612794;54;21675;-60
2024/02/09 00:35:46;;;;;;;3.43;3.00;;;17.00;1.00;;;;;;2613780;54;20434;-59
2024/02/09 00:38:12;;;;;;;2.90;2.70;;;17.00;1.00;;;;;;2612877;47;20519;-61
2024/02/09 00:40:38;;;;;;;2.40;2.20;;;17.00;1.00;;;;;;2613409;54;21378;-59
2024/02/09 00:43:04;;;;;;;2.63;2.17;;;17.00;1.00;;;;;;2612474;51;20429;-60
2024/02/09 00:45:31;;;;;;;3.30;2.57;;;17.00;1.00;;;;;;2613158;47;20472;-60
2024/02/09 00:48:00;;;;;;;2.87;2.57;;;17.00;1.00;;;;;;2613121;54;20454;-61
2024/02/09 00:50:27;;;;;;;2.63;2.23;;;17.00;1.00;;;;;;2611754;54;20402;-60
2024/02/09 00:52:54;;;;;;;3.20;2.87;;;17.00;1.00;;;;;;2612920;54;20466;-61
2024/02/09 00:55:20;;;;;;;2.50;2.30;;;17.00;1.00;;;;;;2612998;54;20449;-61
2024/02/09 00:57:46;;;;;;;2.50;2.30;;;17.00;1.00;;;;;;2612623;54;20440;-60
2024/02/09 01:00:16;;;;;;;2.57;2.37;;;17.00;1.00;;;;;;2612286;54;20450;-61
2024/02/09 01:02:43;;;;;;;4.50;2.93;;;17.00;1.00;;;;;;2612829;54;20421;-61
2024/02/09 01:05:15;;;;;;;2.83;2.20;;;17.00;1.00;;;;;;2612905;39;20811;-61
2024/02/09 01:07:46;;;;;;;2.70;2.50;;;17.00;1.00;;;;;;2612924;54;20421;-61
2024/02/09 01:10:12;;;;;;;4.00;2.30;;;17.00;1.00;;;;;;2613262;54;20427;-61
2024/02/09 02:46:13;;;;;;;5.10;2.73;;;16.90;1.00;;;;;;2612810;54;20157;-63
2024/02/09 03:05:26;;;;;;;2.70;2.43;;;16.90;1.00;;;;;;2612765;54;20412;-72
2024/02/09 03:07:53;;;;;;;2.30;2.00;;;16.90;1.00;;;;;;2613454;54;20450;-73
2024/02/09 03:10:20;;;;;;;3.23;2.47;;;16.90;1.00;;;;;;2612621;54;20416;-73
2024/02/09 03:12:46;;;;;;;2.60;2.13;;;16.90;1.00;;;;;;2613544;54;20423;-64
2024/02/09 03:15:12;;;;;;;4.27;2.70;;;16.90;1.00;;;;;;2612249;54;20410;-64
2024/02/09 03:17:41;;;;;;;2.73;2.37;;;17.00;1.00;;;;;;2612811;54;20420;-64
2024/02/09 03:20:08;;;;;;;2.30;2.10;;;17.00;1.00;;;;;;2612218;54;20738;-64
2024/02/09 03:22:35;;;;;;;3.57;2.30;;;17.00;1.00;;;;;;2611890;54;20422;-64
2024/02/09 03:25:03;;;;;;;2.53;2.30;;;16.90;1.00;;;;;;2612225;47;20435;-64
2024/02/09 03:27:33;;;;;;;2.20;2.00;;;16.90;1.00;;;;;;2613111;54;20428;-64
2024/02/09 03:30:03;;;;;;;2.70;1.87;;;16.90;1.00;;;;;;2613728;39;20874;-64
2024/02/09 03:32:30;;;;;;;3.50;2.73;;;16.90;1.00;;;;;;2613548;47;20424;-64
2024/02/09 03:35:00;;;;;;;2.20;2.07;;;16.90;1.00;;;;;;2613392;47;20430;-64
2024/02/09 03:37:27;;;;;;;3.00;2.17;;;16.90;1.00;;;;;;2612037;54;20430;-64
2024/02/09 03:40:18;;;;;;;2.80;2.60;;;16.90;1.00;;;;;;2613091;54;20403;-64
2024/02/09 03:42:44;;;;;;;3.73;2.77;;;16.90;1.00;;;;;;2612678;54;20523;-63
2024/02/09 03:45:10;;;;;;;2.33;2.13;;;16.90;1.00;;;;;;2613827;39;20843;-62
2024/02/09 03:47:35;;;;;;;5.77;2.43;;;16.90;1.00;;;;;;2613438;54;20691;-63
2024/02/09 03:50:04;;;;;;;4.03;2.40;;;16.90;1.00;;;;;;2612873;54;20207;-63
2024/02/09 03:52:29;;;;;;;2.60;2.30;;;16.90;1.00;;;;;;2613309;39;20580;-63
2024/02/09 03:54:55;;;;;;;4.47;2.40;;;16.90;1.00;;;;;;2613397;54;20435;-61
2024/02/09 03:57:23;;;;;;;3.30;2.90;;;16.90;1.00;;;;;;2612971;54;20170;-61
2024/02/09 03:59:50;;;;;;;2.90;2.53;;;16.90;1.00;;;;;;2612575;47;20166;-62
2024/02/09 04:02:17;;;;;;;2.83;2.10;;;16.90;1.00;;;;;;2613935;47;20443;-65
2024/02/09 04:04:43;;;;;;;2.30;2.10;;;16.90;1.00;;;;;;2612939;54;20996;-65
2024/02/09 04:07:09;;;;;;;3.90;2.40;;;16.90;1.00;;;;;;2612885;47;20438;-65
2024/02/09 04:09:38;;;;;;;2.30;1.90;;;16.90;1.00;;;;;;2614068;39;21363;-65
2024/02/09 04:12:05;;;;;;;2.63;2.43;;;16.90;1.00;;;;;;2612737;54;20423;-65
2024/02/09 04:14:31;;;;;;;2.97;2.00;;;16.90;1.00;;;;;;2613143;54;20430;-65
2024/02/09 04:16:58;;;;;;;2.37;2.17;;;16.90;1.00;;;;;;2613169;54;20453;-65
2024/02/09 04:19:25;;;;;;;3.27;2.30;;;16.90;1.00;;;;;;2612593;47;20460;-65
2024/02/09 04:21:52;;;;;;;1.87;1.77;;;16.90;1.00;;;;;;2612592;47;20420;-65
2024/02/09 04:24:25;;;;;;;2.60;2.20;;;16.90;1.00;;;;;;2613488;54;20423;-60
2024/02/09 04:26:52;;;;;;;2.60;2.40;;;16.90;1.00;;;;;;2612890;54;20438;-58
2024/02/09 04:29:18;;;;;;;2.40;2.20;;;16.90;1.00;;;;;;2613248;54;20442;-59
2024/02/09 04:31:45;;;;;;;3.63;2.40;;;16.90;1.00;;;;;;2613430;54;20413;-59
2024/02/09 04:34:13;;;;;;;2.50;2.30;;;16.90;1.00;;;;;;2613126;54;20439;-59
2024/02/09 04:36:44;;;;;;;2.87;2.50;;;16.90;1.00;;;;;;2612867;54;20422;-58
2024/02/09 04:39:10;;;;;;;2.30;2.10;;;16.90;1.00;;;;;;2613174;54;20423;-58
2024/02/09 04:41:48;;;;;;;3.33;1.90;;;16.90;1.00;;;;;;2611710;54;20456;-59
2024/02/09 04:44:14;;;;;;;4.20;2.57;;;16.90;1.00;;;;;;2613391;54;20447;-59
2024/02/09 04:46:40;;;;;;;2.70;2.07;;;16.90;1.00;;;;;;2612940;54;20524;-58
2024/02/09 04:49:09;;;;;;;3.03;2.20;;;16.90;1.00;;;;;;2612299;54;20179;-59
2024/02/09 04:51:38;;;;;;;2.70;2.20;;;16.90;1.00;;;;;;2613785;39;21215;-58
2024/02/09 04:54:06;;;;;;;2.30;1.90;;;16.90;1.00;;;;;;2612452;54;20541;-58
2024/02/09 04:56:32;;;;;;;1.70;1.60;;;16.90;1.00;;;;;;2611909;54;21322;-58
2024/02/09 04:58:59;;;;;;;2.10;1.90;;;16.90;1.00;;;;;;2612834;54;20526;-58
2024/02/09 05:01:29;;;;;;;1.90;1.70;;;16.90;1.00;;;;;;2613646;39;20883;-58
2024/02/09 05:04:01;;;;;;;3.97;2.07;;;16.90;1.00;;;;;;2612943;47;20527;-58
2024/02/09 05:06:28;;;;;;;2.33;2.10;;;16.90;1.00;;;;;;2612365;54;20522;-58
2024/02/09 05:08:56;;;;;;;3.63;1.83;;;16.90;1.00;;;;;;2612784;54;20416;-58
2024/02/09 05:11:22;;;;;;;1.90;1.67;;;16.90;1.00;;;;;;2611889;54;20409;-58
2024/02/09 05:13:48;;;;;;;2.17;1.73;;;16.90;1.00;;;;;;2612823;54;20427;-61
2024/02/09 05:16:16;;;;;;;2.20;2.07;;;16.90;1.00;;;;;;2613468;39;20809;-62
2024/02/09 05:18:42;;;;;;;3.33;2.00;;;16.90;1.00;;;;;;2613802;39;20769;-62
2024/02/09 05:21:07;;;;;;;2.47;2.27;;;16.90;1.00;;;;;;2613132;54;20414;-62
2024/02/09 05:23:33;;;;;;;1.97;1.70;;;16.90;1.00;;;;;;2612623;39;20786;-62
2024/02/09 05:25:59;;;;;;;3.47;1.87;;;16.90;1.00;;;;;;2612960;54;20140;-62
2024/02/09 05:28:25;;;;;;;7.43;1.83;;;16.90;1.00;;;;;;2612096;54;20446;-62
2024/02/09 05:30:51;;;;;;;1.70;1.60;;;16.90;1.00;;;;;;2612519;47;20431;-62
2024/02/09 05:33:17;;;;;;;2.10;1.90;;;16.90;1.00;;;;;;2613801;31;20644;-59
2024/02/09 05:35:42;;;;;;;2.83;2.37;;;16.90;1.00;;;;;;2612792;49;20308;-59
2024/02/09 05:38:08;;;;;;;1.93;1.83;;;16.90;1.00;;;;;;2613108;39;20787;-59
2024/02/09 05:40:34;;;;;;;2.73;2.20;;;16.90;1.00;;;;;;2612790;54;20398;-58
2024/02/09 05:43:00;;;;;;;2.17;1.90;;;16.90;1.00;;;;;;2611013;54;20202;-58
2024/02/09 05:45:26;;;;;;;2.00;1.53;;;16.90;1.00;;;;;;2613374;39;20540;-58
2024/02/09 05:47:52;;;;;;;1.80;1.53;;;16.90;1.00;;;;;;2612296;54;21068;-59
2024/02/09 05:50:21;;;;;;;2.20;1.57;;;16.90;1.00;;;;;;2612877;54;20420;-58
2024/02/09 05:52:50;;;;;;;1.83;1.63;;;16.90;1.00;;;;;;2612185;54;21048;-59
2024/02/09 05:55:17;;;;;;;1.77;1.67;;;16.90;1.00;;;;;;2612441;47;20462;-60
2024/02/09 05:57:43;;;;;;;3.20;1.87;;;16.90;1.00;;;;;;2612396;54;20404;-58
2024/02/09 06:00:15;;;;;;;1.83;1.73;;;16.90;1.00;;;;;;2611798;54;20479;-58
2024/02/09 06:02:43;;;;;;;2.00;1.80;;;16.90;1.00;;;;;;2612615;54;20434;-65
2024/02/09 06:05:12;;;;;;;2.60;1.77;;;16.90;1.00;;;;;;2612883;54;20427;-65
2024/02/09 06:07:37;;;;;;;1.57;1.40;;;16.90;1.00;;;;;;2612476;54;20917;-65
2024/02/09 06:10:03;;;;;;;2.23;1.87;;;16.90;1.00;;;;;;2612978;39;20811;-65
2024/02/09 06:12:32;;;;;;;2.10;2.00;;;16.90;1.00;;;;;;2612228;54;20262;-65
2024/02/09 06:14:59;;;;;;;2.03;1.80;;;16.90;1.00;;;;;;2612647;54;20499;-65
2024/02/09 06:17:26;;;;;;;3.10;1.90;;;16.90;1.00;;;;;;2612766;54;20416;-65
2024/02/09 06:19:51;;;;;;;2.87;1.90;;;16.90;1.00;;;;;;2611879;54;20415;-65
2024/02/09 06:22:17;;;;;;;1.53;1.37;;;16.90;1.00;;;;;;2612075;54;20477;-59
2024/02/09 06:24:43;;;;;;;2.60;2.03;;;16.90;1.00;;;;;;2612650;54;20162;-59
2024/02/09 06:27:09;;;;;;;1.90;1.50;;;16.90;1.00;;;;;;2612705;54;20167;-59
2024/02/09 06:29:38;;;;;;;1.60;1.50;;;16.90;1.00;;;;;;2612587;54;20270;-59
2024/02/09 06:32:05;;;;;;;1.60;1.50;;;16.90;1.00;;;;;;2611287;54;20267;-59
2024/02/09 06:34:31;;;;;;;1.70;1.60;;;16.90;1.00;;;;;;2611587;54;20423;-58
2024/02/09 06:36:57;;;;;;;2.00;1.90;;;16.90;1.00;;;;;;2613003;54;20631;-58
2024/02/09 06:39:23;;;;;;;1.70;1.60;;;16.90;1.00;;;;;;2612310;54;20194;-58
2024/02/09 06:41:49;;;;;;;2.00;1.80;;;16.90;1.00;;;;;;2612030;54;20425;-59
2024/02/09 06:44:15;;;;;;;1.47;1.37;;;16.90;1.00;;;;;;2612288;54;20164;-64
2024/02/09 06:46:41;;;;;;;2.83;2.63;;;16.90;1.00;;;;;;2612772;54;20932;-64
2024/02/09 06:49:06;;;;;;;1.80;1.43;;;16.90;1.00;;;;;;2611582;39;21166;-65
2024/02/09 06:51:32;;;;;;;1.80;1.70;;;16.90;1.00;;;;;;2612592;54;20157;-65
2024/02/09 06:53:58;;;;;;;1.60;1.50;;;16.90;1.00;;;;;;2611141;54;20182;-65
2024/02/09 06:56:23;;;;;;;4.63;2.20;;;16.90;1.00;;;;;;2612357;54;20159;-65
2024/02/09 06:58:54;;;;;;;1.90;1.80;;;16.90;1.00;;;;;;2611105;54;20239;-63
2024/02/09 07:01:21;;;;;;;1.73;1.50;;;16.90;1.00;;;;;;2611832;39;20587;-64
2024/02/09 07:03:49;;;;;;;3.00;1.90;;;16.90;1.00;;;;;;2613143;54;20493;-64
2024/02/09 07:06:14;;;;;;;1.63;1.50;;;16.90;1.00;;;;;;2613556;47;20423;-64
2024/02/09 07:08:40;;;;;;;1.73;1.63;;;16.90;1.00;;;;;;2612494;54;20472;-65
2024/02/09 07:11:11;;;;;;;2.70;1.70;;;16.90;1.00;;;;;;2612783;54;20259;-64
2024/02/09 07:13:43;;;;;;;1.87;1.77;;;16.90;1.00;;;;;;2612756;54;20478;-62
2024/02/09 07:16:09;;;;;;;2.17;2.07;;;16.90;1.00;;;;;;2613965;39;20932;-62
2024/02/09 07:18:38;;;;;;;2.00;1.90;;;16.90;1.00;;;;;;2612920;54;20448;-61
2024/02/09 07:21:05;;;;;;;1.70;1.60;;;16.90;1.00;;;;;;2613068;54;20293;-61
2024/02/09 07:23:31;;;;;;;1.70;1.60;;;16.90;1.00;;;;;;2612625;54;20452;-62
2024/02/09 07:25:57;;;;;;;2.17;1.97;;;16.90;1.00;;;;;;2612827;47;20432;-62
2024/02/09 07:28:23;;;;;;;2.07;1.80;;;16.90;1.00;;;;;;2612819;54;20136;-62
2024/02/09 07:30:49;;;;;;;1.70;1.60;;;16.90;1.00;;;;;;2612158;54;20443;-62
2024/02/09 07:33:15;;;;;;;1.90;1.80;;;16.90;1.00;;;;;;2612919;54;20436;-73
2024/02/09 07:35:42;;;;;;;1.53;1.37;;;16.90;1.00;;;;;;2613029;47;20182;-72
2024/02/09 07:38:08;;;;;;;1.60;1.50;;;16.90;1.00;;;;;;2612400;54;20419;-73
2024/02/09 07:40:33;;;;;;;2.10;1.77;;;16.90;1.00;;;;;;2613345;54;20508;-72
2024/02/09 07:42:59;;;;;;;1.57;1.47;;;16.90;1.00;;;;;;2613726;54;20258;-72
2024/02/09 07:45:24;;;;;;;3.60;1.90;;;16.90;1.00;;;;;;2612622;54;20175;-73
2024/02/09 07:47:50;;;;;;;1.60;1.50;;;16.90;1.00;;;;;;2612497;54;20186;-72
2024/02/09 07:50:16;;;;;;;1.90;1.80;;;16.90;1.00;;;;;;2613703;54;20175;-73
2024/02/09 07:52:42;;;;;;;1.73;1.63;;;16.90;1.00;;;;;;2613324;54;20163;-61
2024/02/09 07:55:07;;;;;;;1.67;1.57;;;16.90;1.00;;;;;;2613363;54;21029;-62
2024/02/09 07:57:34;;;;;;;2.10;1.90;;;16.90;1.00;;;;;;2612591;54;20208;-61
2024/02/09 08:00:00;;;;;;;1.90;1.80;;;16.90;1.00;;;;;;2612120;54;20173;-61
2024/02/09 08:02:28;;;;;;;2.30;2.10;;;16.90;1.00;;;;;;2612711;54;21173;-61
2024/02/09 08:04:55;;;;;;;1.63;1.53;;;16.90;1.00;;;;;;2613128;54;20445;-61
2024/02/09 08:07:20;;;;;;;1.50;1.40;;;16.90;1.00;;;;;;2612474;54;20542;-62
2024/02/09 08:09:49;;;;;;;1.60;1.50;;;16.90;1.00;;;;;;2612969;54;20428;-62
2024/02/09 08:12:15;;;;;;;2.50;1.60;;;16.90;1.00;;;;;;2613112;54;20407;-63
2024/02/09 08:14:41;;;;;;;1.50;1.20;;;16.90;1.00;;;;;;2612347;54;20494;-63
2024/02/09 08:17:09;;;;;;;1.40;1.30;;;16.90;1.00;;;;;;2613229;47;20443;-63
2024/02/09 08:19:34;;;;;;;1.60;1.50;;;16.90;1.00;;;;;;2612865;54;20161;-62
2024/02/09 08:22:01;;;;;;;2.33;1.50;;;16.90;1.00;;;;;;2612022;54;20422;-72
2024/02/09 08:24:27;;;;;;;4.30;1.37;;;16.90;1.00;;;;;;2613760;39;20757;-60
2024/02/09 08:26:56;;;;;;;2.43;1.60;;;16.90;1.00;;;;;;2612800;54;20422;-61
2024/02/09 08:29:21;;;;;;;1.60;1.50;;;16.90;1.00;;;;;;2612757;39;20905;-59
2024/02/09 08:31:47;;;;;;;1.50;1.40;;;16.90;1.00;;;;;;2612845;54;20509;-60
2024/02/09 08:34:13;;;;;;;9.17;2.93;;;16.90;1.00;;;;;;2612904;54;20170;-59
2024/02/09 08:36:38;;;;;;;1.67;1.00;;;16.90;1.00;;;;;;2612755;54;20217;-60
2024/02/09 08:39:04;;;;;;;3.10;1.60;;;16.90;1.00;;;;;;2612404;54;20160;-60
2024/02/09 08:41:30;;;;;;;1.87;1.70;;;16.90;1.00;;;;;;2612010;54;20189;-60
2024/02/09 08:43:56;;;;;;;1.10;1.00;;;16.90;1.00;;;;;;2613272;47;20421;-72
2024/02/09 08:46:22;;;;;;;1.67;1.53;;;16.90;1.00;;;;;;2613978;47;20416;-71
2024/02/09 08:48:48;;;;;;;1.87;1.67;;;16.90;1.00;;;;;;2613347;54;20197;-72
2024/02/09 08:51:14;;;;;;;4.80;1.77;;;16.90;1.00;;;;;;2613901;54;20507;-71
2024/02/09 08:53:40;;;;;;;1.80;1.53;;;16.90;1.00;;;;;;2613979;54;20488;-73
2024/02/09 08:56:09;;;;;;;2.53;1.40;;;16.90;1.00;;;;;;2613147;54;20411;-72
2024/02/09 08:58:36;;;;;;;2.50;1.43;;;16.90;1.00;;;;;;2612858;54;20151;-70
2024/02/09 09:01:01;;;;;;;1.53;1.40;;;16.90;1.00;;;;;;2613720;39;21225;-73
2024/02/09 09:03:27;;;;;;;1.73;1.47;;;16.90;1.00;;;;;;2613296;47;20463;-74
2024/02/09 09:05:53;;;;;;;1.20;1.10;;;16.90;1.00;;;;;;2611689;54;20699;-72
2024/02/09 09:08:19;;;;;;;1.90;1.37;;;16.90;1.00;;;;;;2613351;39;20647;-72
2024/02/09 09:10:45;;;;;;;1.30;1.10;;;16.90;1.00;;;;;;2613712;54;20457;-72
2024/02/09 09:13:11;;;;;;;1.93;1.40;;;16.90;1.00;;;;;;2613854;54;20495;-72
2024/02/09 09:15:41;;;;;;;1.60;1.20;;;16.90;1.00;;;;;;2613476;54;20187;-72
2024/02/09 09:18:07;;;;;;;1.40;1.30;;;16.90;1.00;;;;;;2612429;54;20198;-73
2024/02/09 09:20:34;;;;;;;1.83;1.33;;;16.90;1.00;;;;;;2613679;39;20791;-73
2024/02/09 09:23:01;;;;;;;1.67;1.33;;;16.90;1.00;;;;;;2613685;54;20153;-72
2024/02/09 09:25:29;;;;;;;2.43;1.40;;;16.90;1.00;;;;;;2614018;54;20397;-72
2024/02/09 09:27:57;;;;;;;1.57;1.43;;;16.90;1.00;;;;;;2613280;54;20506;-72
2024/02/09 09:30:23;;;;;;;1.53;1.43;;;16.90;1.00;;;;;;2613547;54;20426;-72
2024/02/09 09:32:48;;;;;;;2.40;1.23;;;16.90;1.00;;;;;;2613680;54;20423;-61
2024/02/09 09:35:15;;;;;;;2.60;1.23;;;16.90;1.00;;;;;;2612551;54;21219;-62
2024/02/09 09:37:41;;;;;;;3.43;1.83;;;16.90;1.00;;;;;;2612329;39;20659;-61
2024/02/09 09:40:08;;;;;;;2.23;1.60;;;16.90;1.00;;;;;;2612987;54;20406;-62
2024/02/09 09:42:38;;;;;;;1.20;1.10;;;16.90;1.00;;;;;;2612608;39;20837;-61
2024/02/09 09:45:08;;;;;;;1.33;1.23;;;16.90;1.00;;;;;;2612332;54;20480;-61
2024/02/09 09:47:38;;;;;;;3.93;1.80;;;16.90;1.00;;;;;;2613105;39;20867;-62
2024/02/09 09:50:06;;;;;;;3.23;1.70;;;16.90;1.00;;;;;;2611930;54;20424;-61
2024/02/09 09:52:36;;;;;;;2.20;1.57;;;16.90;1.00;;;;;;2612811;54;20498;-62
2024/02/09 09:55:02;;;;;;;1.60;1.30;;;16.90;1.00;;;;;;2613567;39;21119;-62
2024/02/09 09:57:30;;;;;;;1.50;1.30;;;16.90;1.00;;;;;;2612682;54;20428;-63
2024/02/09 09:59:57;;;;;;;3.00;1.30;;;16.90;1.00;;;;;;2611874;54;20403;-63
2024/02/09 10:02:23;;;;;;;2.53;1.70;;;16.90;1.00;;;;;;2612089;54;20531;-62
2024/02/09 10:04:49;;;;;;;2.37;1.53;;;16.90;1.00;;;;;;2613151;54;20415;-62
2024/02/09 10:07:19;;;;;;;1.40;1.30;;;16.90;1.00;;;;;;2611925;51;20197;-63
2024/02/09 10:09:45;;;;;;;1.90;1.70;;;16.90;1.00;;;;;;2612491;54;20518;-62
2024/02/09 10:12:13;;;;;;;1.53;1.40;;;16.90;1.00;;;;;;2612993;54;20456;-59
2024/02/09 10:14:41;;;;;;;1.30;1.10;;;16.90;1.00;;;;;;2612997;54;20402;-58
2024/02/09 10:17:13;;;;;;;1.40;1.20;;;16.90;1.00;;;;;;2611827;47;20461;-58
2024/02/09 10:19:39;;;;;;;4.03;1.60;;;16.90;1.00;;;;;;2613140;54;20424;-59
2024/02/09 10:22:05;;;;;;;1.87;1.50;;;16.90;1.00;;;;;;2612755;54;20427;-59
2024/02/09 10:24:32;;;;;;;1.60;1.50;;;17.00;1.00;;;;;;2612865;54;20145;-59
2024/02/09 10:26:58;;;;;;;2.03;1.50;;;17.00;1.00;;;;;;2612606;54;20420;-59
2024/02/09 10:29:26;;;;;;;3.50;1.67;;;17.00;1.00;;;;;;2611893;39;20872;-58
2024/02/09 10:31:55;;;;;;;1.47;1.30;;;17.00;1.00;;;;;;2612787;54;20399;-59
2024/02/09 10:34:24;;;;;;;2.00;1.60;;;17.00;1.00;;;;;;2612933;54;20450;-59
2024/02/09 10:36:53;;;;;;;2.40;1.50;;;17.00;1.00;;;;;;2611988;54;20513;-58
2024/02/09 10:39:19;;;;;;;2.57;1.30;;;17.00;1.00;;;;;;2613402;31;21026;-58
2024/02/09 10:41:47;;;;;;;1.87;1.27;;;17.00;1.00;;;;;;2612666;54;20415;-59
2024/02/09 10:44:15;;;;;;;1.83;1.57;;;17.00;1.00;;;;;;2612999;54;20148;-59
2024/02/09 10:46:43;;;;;;;1.60;1.50;;;17.00;1.00;;;;;;2613163;54;20399;-59
2024/02/09 10:49:09;;;;;;;1.67;1.40;;;17.10;1.00;;;;;;2612531;39;20839;-59
2024/02/09 10:51:36;;;;;;;1.80;1.40;;;17.00;1.00;;;;;;2612189;54;20408;-58
2024/02/09 10:54:22;;;;;;;1.20;1.10;;;17.10;1.00;;;;;;2612616;47;20534;-58
2024/02/09 10:56:50;;;;;;;1.70;1.27;;;17.10;1.00;;;;;;2611735;54;20442;-58
2024/02/09 10:59:17;;;;;;;1.40;1.30;;;17.20;1.00;;;;;;2611578;54;20414;-58
2024/02/09 11:01:44;;;;;;;3.30;1.33;;;17.30;1.00;;;;;;2613126;54;20411;-60
2024/02/09 11:04:10;;;;;;;1.40;1.13;;;17.30;1.00;;;;;;2612850;47;20440;-59
2024/02/09 11:06:37;;;;;;;1.37;1.20;;;17.40;1.00;;;;;;2612309;54;21172;-59
2024/02/09 11:09:03;;;;;;;1.83;1.53;;;17.40;1.00;;;;;;2612130;39;20949;-59
2024/02/09 11:11:32;;;;;;;1.63;1.50;;;17.30;1.00;;;;;;2613024;54;20428;-59
2024/02/09 11:14:30;;;;;;;1.83;1.57;;;17.30;1.00;;;;;;2612920;54;20407;-58
2024/02/09 11:16:59;;;;;;;1.40;1.30;;;17.30;1.00;;;;;;2612478;54;20441;-59
2024/02/09 11:19:25;;;;;;;2.43;1.50;;;17.30;1.00;;;;;;2611654;54;20428;-59
2024/02/09 11:22:00;;;;;;;1.27;1.07;;;17.30;1.00;;;;;;2612855;54;20496;-57
2024/02/09 11:24:26;;;;;;;1.70;1.60;;;17.30;1.00;;;;;;2612577;54;20408;-73
2024/02/09 11:26:53;;;;;;;2.50;1.67;;;17.30;1.00;;;;;;2613102;54;20422;-73
2024/02/09 11:29:19;;;;;;;2.07;1.13;;;17.20;1.00;;;;;;2612604;54;20529;-72
2024/02/09 11:31:50;;;;;;;1.23;1.13;;;17.20;1.00;;;;;;2614281;39;20872;-73
2024/02/09 11:34:18;;;;;;;2.30;1.60;;;17.30;1.00;;;;;;2613853;39;20861;-73
2024/02/09 11:36:44;;;;;;;3.40;1.33;;;17.30;1.00;;;;;;2613679;54;20395;-72
2024/02/09 11:39:10;;;;;;;1.40;1.30;;;17.20;1.00;;;;;;2613228;47;20474;-73
2024/02/09 11:41:36;;;;;;;2.00;1.40;;;17.30;1.00;;;;;;2613011;54;20180;-73
2024/02/09 11:44:02;;;;;;;1.40;1.30;;;17.20;1.00;;;;;;2612831;54;20415;-73
2024/02/09 11:46:28;;;;;;;1.33;1.23;;;17.20;1.00;;;;;;2613437;54;21009;-72
2024/02/09 11:48:55;;;;;;;1.57;1.40;;;17.20;1.00;;;;;;2613171;54;20744;-72
2024/02/09 11:51:21;;;;;;;1.33;0.80;;;17.20;1.00;;;;;;2613333;54;20258;-73
2024/02/09 11:53:51;;;;;;;2.63;1.60;;;17.20;1.00;;;;;;2614069;54;20451;-63
2024/02/09 11:56:18;;;;;;;1.40;1.30;;;17.20;1.00;;;;;;2613389;54;20399;-65
2024/02/09 11:58:49;;;;;;;1.50;1.30;;;17.20;1.00;;;;;;2613582;54;20435;-64
2024/02/09 12:01:21;;;;;;;1.67;1.20;;;17.20;1.00;;;;;;2611602;48;20455;-64
2024/02/09 12:03:47;;;;;;;1.50;1.20;;;17.20;1.00;;;;;;2612994;47;20430;-63
2024/02/09 12:06:12;;;;;;;1.67;1.40;;;17.20;1.00;;;;;;2613369;54;20424;-64
2024/02/09 12:08:39;;;;;;;1.43;1.20;;;17.20;1.00;;;;;;2613276;54;20427;-64
2024/02/09 12:11:05;;;;;;;2.03;1.00;;;17.20;1.00;;;;;;2613327;54;20149;-64
2024/02/09 12:13:31;;;;;;;1.63;1.50;;;17.20;1.00;;;;;;2613710;54;20432;-67
2024/02/09 12:15:57;;;;;;;2.17;1.97;;;17.20;1.00;;;;;;2613421;39;20914;-67
2024/02/09 12:18:23;;;;;;;1.93;1.20;;;17.20;1.00;;;;;;2613361;39;20562;-67
2024/02/09 12:20:49;;;;;;;1.20;1.10;;;17.10;1.00;;;;;;2613277;54;20251;-67
2024/02/09 12:23:15;;;;;;;1.90;1.37;;;17.10;1.00;;;;;;2612446;54;21005;-67
2024/02/09 12:25:41;;;;;;;1.30;1.20;;;17.10;1.00;;;;;;2613553;54;20202;-67
2024/02/09 12:28:19;;;;;;;1.70;1.40;;;17.10;1.00;;;;;;2613149;47;20417;-66
2024/02/09 12:30:45;;;;;;;1.33;1.10;;;17.10;1.00;;;;;;2613721;54;20193;-67
2024/02/09 12:33:11;;;;;;;1.87;1.30;;;17.10;1.00;;;;;;2612813;54;21100;-59
2024/02/09 12:35:37;;;;;;;1.53;1.10;;;17.10;1.00;;;;;;2613267;54;20395;-59
2024/02/09 12:38:03;;;;;;;2.03;1.37;;;17.10;1.00;;;;;;2613079;49;20448;-59
2024/02/09 12:40:29;;;;;;;2.40;1.50;;;17.10;1.00;;;;;;2613221;54;20419;-59
2024/02/09 12:42:55;;;;;;;3.00;1.37;;;17.10;1.00;;;;;;2613095;54;20470;-59
2024/02/09 12:45:28;;;;;;;1.63;1.43;;;17.20;1.00;;;;;;2613402;54;20491;-59
2024/02/09 12:47:54;;;;;;;2.60;1.60;;;17.10;1.00;;;;;;2613102;54;20428;-59
2024/02/09 12:50:20;;;;;;;1.83;1.30;;;17.10;1.00;;;;;;2613862;39;20850;-58
2024/02/09 12:52:49;;;;;;;1.70;1.37;;;17.10;1.00;;;;;;2612910;51;20425;-58
2024/02/09 12:55:19;;;;;;;1.60;1.30;;;17.10;1.00;;;;;;2612611;54;21023;-58
2024/02/09 12:57:47;;;;;;;1.53;1.43;;;17.10;1.00;;;;;;2612714;54;21041;-59
2024/02/09 13:00:14;;;;;;;1.50;1.40;;;17.10;1.00;;;;;;2612968;54;20422;-57
2024/02/09 13:02:40;;;;;;;2.23;1.20;;;17.10;1.00;;;;;;2611376;54;20426;-63
2024/02/09 13:05:06;;;;;;;2.60;1.40;;;17.10;1.00;;;;;;2613373;54;20462;-65
2024/02/09 13:07:35;;;;;;;3.47;1.80;;;17.10;1.00;;;;;;2612428;54;20446;-65
2024/02/09 13:10:01;;;;;;;2.60;1.90;;;17.10;1.00;;;;;;2613379;54;20441;-64
2024/02/09 13:12:27;;;;;;;1.53;1.37;;;17.10;1.00;;;;;;2613351;54;20396;-63
2024/02/09 13:14:53;;;;;;;1.60;1.50;;;17.10;1.00;;;;;;2613192;54;20462;-65
2024/02/09 13:17:19;;;;;;;1.40;1.30;;;17.10;1.00;;;;;;2612511;54;20480;-63
2024/02/09 13:19:46;;;;;;;2.30;1.80;;;17.10;1.00;;;;;;2613681;54;20172;-64
2024/02/09 13:22:11;;;;;;;1.50;1.37;;;17.10;1.00;;;;;;2613401;54;20443;-67
2024/02/09 13:24:42;;;;;;;2.40;1.77;;;17.10;1.00;;;;;;2613220;54;20418;-67
2024/02/09 13:27:12;;;;;;;1.90;1.70;;;17.10;1.00;;;;;;2611975;54;20166;-67
2024/02/09 13:29:38;;;;;;;1.40;1.30;;;17.10;1.00;;;;;;2612287;54;20963;-67
2024/02/09 13:32:04;;;;;;;1.67;1.37;;;17.10;1.00;;;;;;2613609;47;20410;-65
2024/02/09 13:34:30;;;;;;;1.83;1.50;;;17.10;1.00;;;;;;2613370;54;20423;-67
2024/02/09 13:36:56;;;;;;;1.50;1.40;;;17.10;1.00;;;;;;2612853;54;20403;-66
2024/02/09 13:39:22;;;;;;;1.40;1.30;;;17.10;1.00;;;;;;2613163;54;20150;-66
2024/02/09 13:41:48;;;;;;;1.87;1.40;;;17.10;1.00;;;;;;2612944;54;20506;-67
2024/02/09 13:44:15;;;;;;;1.50;1.30;;;17.10;1.00;;;;;;2613487;50;20155;-63
2024/02/09 13:46:44;;;;;;;1.73;1.50;;;17.10;1.00;;;;;;2613206;54;20204;-62
2024/02/09 13:49:10;;;;;;;1.43;1.27;;;17.10;1.00;;;;;;2612782;54;20968;-63
2024/02/09 13:51:35;;;;;;;2.13;1.47;;;17.10;1.00;;;;;;2613095;54;20439;-61
2024/02/09 13:54:01;;;;;;;1.70;1.20;;;17.10;1.00;;;;;;2612875;54;20151;-61
2024/02/09 13:56:27;;;;;;;1.60;1.50;;;17.10;1.00;;;;;;2612630;47;20772;-63
2024/02/09 13:58:53;;;;;;;2.30;1.70;;;17.10;1.00;;;;;;2613261;54;20159;-62
2024/02/09 14:01:21;;;;;;;2.87;1.73;;;17.10;1.00;;;;;;2612159;54;20417;-62
2024/02/09 14:03:50;;;;;;;1.30;1.20;;;17.10;1.00;;;;;;2613725;31;20908;-62
2024/02/09 14:06:17;;;;;;;2.43;1.90;;;17.10;1.00;;;;;;2612368;39;20840;-62
2024/02/09 14:08:47;;;;;;;2.07;1.70;;;17.10;1.00;;;;;;2612575;54;20408;-62
2024/02/09 14:11:13;;;;;;;1.60;1.50;;;17.10;1.00;;;;;;2613002;54;20541;-63
2024/02/09 14:13:39;;;;;;;2.23;1.67;;;17.10;1.00;;;;;;2613201;54;20465;-64
2024/02/09 14:16:06;;;;;;;1.40;1.30;;;17.10;1.00;;;;;;2612900;54;20405;-63
2024/02/09 14:18:33;;;;;;;1.30;1.20;;;17.10;1.00;;;;;;2612750;47;20422;-62
2024/02/09 14:20:59;;;;;;;1.57;1.47;;;17.10;1.00;;;;;;2613337;54;20399;-63
2024/02/09 14:23:27;;;;;;;1.83;1.63;;;17.10;1.00;;;;;;2612448;39;20463;-64
2024/02/09 14:25:56;;;;;;;1.60;1.20;;;17.10;1.00;;;;;;2612952;54;20423;-64
2024/02/09 14:28:23;;;;;;;1.63;1.43;;;17.10;1.00;;;;;;2612691;54;20546;-63
2024/02/09 14:30:50;;;;;;;1.50;1.40;;;17.10;1.00;;;;;;2612721;54;20415;-64
2024/02/09 14:33:15;;;;;;;2.13;1.93;;;17.10;1.00;;;;;;2613456;54;20522;-64
2024/02/09 14:35:43;;;;;;;3.00;1.40;;;17.10;1.00;;;;;;2613398;54;20454;-64
2024/02/09 14:38:08;;;;;;;1.97;1.30;;;17.10;1.00;;;;;;2612101;54;20161;-64
2024/02/09 14:40:34;;;;;;;1.60;1.50;;;17.10;1.00;;;;;;2613160;54;20884;-64
2024/02/09 14:43:01;;;;;;;1.60;1.50;;;17.10;1.00;;;;;;2612216;54;20170;-64
2024/02/09 14:45:26;;;;;;;1.47;1.30;;;17.10;1.00;;;;;;2612799;54;20169;-65
2024/02/09 14:47:52;;;;;;;1.77;1.60;;;17.10;1.00;;;;;;2612331;54;20452;-64